sensor_id;sensor_type;location;lat;lon;timestamp;P1;P2;P0
62599;PMS7003;48671;48.922;2.346;2023-07-31T00:02:17;5.50;4.00;2.00
62599;PMS7003;48671;48.922;2.346;2023-07-31T00:04:42;3.25;3.25;2.00
62599;PMS7003;48671;48.922;2.346;2023-07-31T00:07:07;4.50;3.75;2.00
62599;PMS7003;48671;48.922;2.346;2023-07-31T00:09:33;8.25;5.00;3.00
62599;PMS7003;48671;48.922;2.346;2023-07-31T00:11:58;4.00;4.00;2.50
62599;PMS7003;48671;48.922;2.346;2023-07-31T00:14:24;8.00;5.00;3.00
62599;PMS7003;48671;48.922;2.346;2023-07-31T00:16:49;5.25;5.25;3.25
62599;PMS7003;48671;48.922;2.346;2023-07-31T00:19:14;5.50;5.50;4.00
62599;PMS7003;48671;48.922;2.346;2023-07-31T00:21:40;4.50;4.00;2.25
62599;PMS7003;48671;48.922;2.346;2023-07-31T00:24:05;4.75;4.75;2.75
62599;PMS7003;48671;48.922;2.346;2023-07-31T00:26:30;5.00;5.00;3.50
62599;PMS7003;48671;48.922;2.346;2023-07-31T00:28:56;5.50;4.25;2.00
62599;PMS7003;48671;48.922;2.346;2023-07-31T00:31:21;4.00;4.00;3.00
62599;PMS7003;48671;48.922;2.346;2023-07-31T00:33:46;7.25;5.00;3.50
62599;PMS7003;48671;48.922;2.346;2023-07-31T00:36:12;5.00;4.50;3.00
62599;PMS7003;48671;48.922;2.346;2023-07-31T00:38:37;8.25;6.25;4.00
62599;PMS7003;48671;48.922;2.346;2023-07-31T00:41:02;6.25;5.50;2.00
62599;PMS7003;48671;48.922;2.346;2023-07-31T00:43:28;5.00;4.00;2.00
62599;PMS7003;48671;48.922;2.346;2023-07-31T00:45:53;5.25;4.50;3.50
62599;PMS7003;48671;48.922;2.346;2023-07-31T00:48:19;5.00;4.50;2.25
62599;PMS7003;48671;48.922;2.346;2023-07-31T00:50:44;5.50;5.50;3.00
62599;PMS7003;48671;48.922;2.346;2023-07-31T00:53:09;6.00;6.00;4.00
62599;PMS7003;48671;48.922;2.346;2023-07-31T00:55:35;8.00;6.25;3.00
62599;PMS7003;48671;48.922;2.346;2023-07-31T00:58:00;5.00;4.75;3.00
62599;PMS7003;48671;48.922;2.346;2023-07-31T01:00:25;7.00;4.75;3.75
62599;PMS7003;48671;48.922;2.346;2023-07-31T01:02:51;4.50;3.50;2.50
62599;PMS7003;48671;48.922;2.346;2023-07-31T01:05:17;8.00;6.00;4.00
62599;PMS7003;48671;48.922;2.346;2023-07-31T01:07:51;7.25;5.00;3.00
62599;PMS7003;48671;48.922;2.346;2023-07-31T01:10:23;5.75;5.50;3.00
62599;PMS7003;48671;48.922;2.346;2023-07-31T01:12:51;8.25;7.75;4.00
62599;PMS7003;48671;48.922;2.346;2023-07-31T01:15:18;6.25;5.75;3.00
62599;PMS7003;48671;48.922;2.346;2023-07-31T01:17:44;7.00;7.00;3.00
62599;PMS7003;48671;48.922;2.346;2023-07-31T01:20:16;5.50;4.75;2.75
62599;PMS7003;48671;48.922;2.346;2023-07-31T01:25:23;5.75;4.75;3.00
62599;PMS7003;48671;48.922;2.346;2023-07-31T01:28:10;7.75;5.00;3.25
62599;PMS7003;48671;48.922;2.346;2023-07-31T01:30:43;6.00;5.00;3.00
62599;PMS7003;48671;48.922;2.346;2023-07-31T01:33:12;6.50;4.00;3.00
62599;PMS7003;48671;48.922;2.346;2023-07-31T01:35:42;5.75;5.00;3.00
62599;PMS7003;48671;48.922;2.346;2023-07-31T01:38:09;2.25;2.25;2.00
62599;PMS7003;48671;48.922;2.346;2023-07-31T01:40:35;3.75;3.25;2.00
62599;PMS7003;48671;48.922;2.346;2023-07-31T01:43:00;5.50;3.50;2.00
62599;PMS7003;48671;48.922;2.346;2023-07-31T01:45:25;5.75;4.50;2.00
62599;PMS7003;48671;48.922;2.346;2023-07-31T01:47:51;4.25;4.00;2.25
62599;PMS7003;48671;48.922;2.346;2023-07-31T01:50:17;6.75;5.00;2.00
62599;PMS7003;48671;48.922;2.346;2023-07-31T01:52:42;8.50;4.50;2.25
62599;PMS7003;48671;48.922;2.346;2023-07-31T01:55:07;7.00;4.00;2.00
62599;PMS7003;48671;48.922;2.346;2023-07-31T01:57:33;7.50;4.25;1.25
62599;PMS7003;48671;48.922;2.346;2023-07-31T01:59:58;4.75;4.25;2.50
62599;PMS7003;48671;48.922;2.346;2023-07-31T02:02:24;3.75;3.25;2.00
62599;PMS7003;48671;48.922;2.346;2023-07-31T02:04:49;3.00;3.00;1.00
62599;PMS7003;48671;48.922;2.346;2023-07-31T02:07:14;5.50;5.00;2.00
62599;PMS7003;48671;48.922;2.346;2023-07-31T02:09:40;2.75;2.50;1.00
62599;PMS7003;48671;48.922;2.346;2023-07-31T02:12:05;6.00;4.00;2.00
62599;PMS7003;48671;48.922;2.346;2023-07-31T02:14:33;6.00;4.00;2.00
62599;PMS7003;48671;48.922;2.346;2023-07-31T02:16:59;11.00;7.00;3.25
62599;PMS7003;48671;48.922;2.346;2023-07-31T02:19:24;2.75;2.75;2.00
62599;PMS7003;48671;48.922;2.346;2023-07-31T02:21:49;3.00;3.00;1.00
62599;PMS7003;48671;48.922;2.346;2023-07-31T02:24:14;4.67;4.00;1.67
62599;PMS7003;48671;48.922;2.346;2023-07-31T02:26:40;4.50;3.75;2.00
62599;PMS7003;48671;48.922;2.346;2023-07-31T02:29:07;3.00;3.00;1.50
62599;PMS7003;48671;48.922;2.346;2023-07-31T02:31:32;2.50;2.50;1.00
62599;PMS7003;48671;48.922;2.346;2023-07-31T02:33:57;4.00;3.00;1.00
62599;PMS7003;48671;48.922;2.346;2023-07-31T02:36:22;2.75;2.75;1.00
62599;PMS7003;48671;48.922;2.346;2023-07-31T02:38:48;4.00;2.50;0.75
62599;PMS7003;48671;48.922;2.346;2023-07-31T02:41:13;3.00;2.67;1.00
62599;PMS7003;48671;48.922;2.346;2023-07-31T02:43:38;4.00;3.00;2.00
62599;PMS7003;48671;48.922;2.346;2023-07-31T02:46:04;2.25;2.25;1.75
62599;PMS7003;48671;48.922;2.346;2023-07-31T02:48:29;4.75;3.25;2.00
62599;PMS7003;48671;48.922;2.346;2023-07-31T02:50:54;6.67;3.00;1.00
62599;PMS7003;48671;48.922;2.346;2023-07-31T02:53:19;4.00;2.50;1.00
62599;PMS7003;48671;48.922;2.346;2023-07-31T02:55:45;3.50;2.50;1.00
62599;PMS7003;48671;48.922;2.346;2023-07-31T02:58:10;2.00;2.00;1.00
62599;PMS7003;48671;48.922;2.346;2023-07-31T03:00:35;4.00;2.00;2.00
62599;PMS7003;48671;48.922;2.346;2023-07-31T03:03:01;2.25;2.25;1.00
62599;PMS7003;48671;48.922;2.346;2023-07-31T03:05:26;7.33;4.67;1.00
62599;PMS7003;48671;48.922;2.346;2023-07-31T03:07:51;4.25;3.75;1.75
62599;PMS7003;48671;48.922;2.346;2023-07-31T03:10:16;2.75;2.75;1.00
62599;PMS7003;48671;48.922;2.346;2023-07-31T03:12:42;3.75;3.00;2.00
62599;PMS7003;48671;48.922;2.346;2023-07-31T03:15:08;4.50;3.00;2.00
62599;PMS7003;48671;48.922;2.346;2023-07-31T03:17:33;2.50;2.50;1.50
62599;PMS7003;48671;48.922;2.346;2023-07-31T03:19:58;4.00;4.00;2.00
62599;PMS7003;48671;48.922;2.346;2023-07-31T03:22:24;13.33;10.67;7.00
62599;PMS7003;48671;48.922;2.346;2023-07-31T03:24:49;4.25;4.25;2.00
62599;PMS7003;48671;48.922;2.346;2023-07-31T03:27:14;3.00;3.00;1.00
62599;PMS7003;48671;48.922;2.346;2023-07-31T03:29:40;5.00;3.25;1.00
62599;PMS7003;48671;48.922;2.346;2023-07-31T03:32:05;3.00;2.75;2.00
62599;PMS7003;48671;48.922;2.346;2023-07-31T03:34:31;2.25;2.25;1.00
62599;PMS7003;48671;48.922;2.346;2023-07-31T03:36:57;4.00;2.75;2.00
62599;PMS7003;48671;48.922;2.346;2023-07-31T03:39:23;4.00;3.00;1.00
62599;PMS7003;48671;48.922;2.346;2023-07-31T03:41:48;2.00;2.00;1.00
62599;PMS7003;48671;48.922;2.346;2023-07-31T03:44:13;4.25;3.00;2.00
62599;PMS7003;48671;48.922;2.346;2023-07-31T03:46:39;2.00;1.25;1.00
62599;PMS7003;48671;48.922;2.346;2023-07-31T03:49:04;2.75;2.75;2.00
62599;PMS7003;48671;48.922;2.346;2023-07-31T03:51:29;1.00;1.00;1.00
62599;PMS7003;48671;48.922;2.346;2023-07-31T03:53:55;3.00;3.00;1.50
62599;PMS7003;48671;48.922;2.346;2023-07-31T03:56:20;3.00;3.00;1.75
62599;PMS7003;48671;48.922;2.346;2023-07-31T03:58:45;3.00;3.00;1.50
62599;PMS7003;48671;48.922;2.346;2023-07-31T04:01:10;3.00;3.00;2.00
62599;PMS7003;48671;48.922;2.346;2023-07-31T04:03:36;4.00;3.00;2.00
62599;PMS7003;48671;48.922;2.346;2023-07-31T04:06:01;3.75;3.75;1.75
62599;PMS7003;48671;48.922;2.346;2023-07-31T04:08:27;3.00;3.00;2.00
62599;PMS7003;48671;48.922;2.346;2023-07-31T04:10:52;3.50;3.50;1.50
62599;PMS7003;48671;48.922;2.346;2023-07-31T04:13:17;4.75;4.00;1.75
62599;PMS7003;48671;48.922;2.346;2023-07-31T04:15:42;4.75;4.00;2.75
62599;PMS7003;48671;48.922;2.346;2023-07-31T04:18:13;5.50;4.75;3.00
62599;PMS7003;48671;48.922;2.346;2023-07-31T04:20:39;6.00;4.00;2.00
62599;PMS7003;48671;48.922;2.346;2023-07-31T04:23:04;4.67;4.00;2.00
62599;PMS7003;48671;48.922;2.346;2023-07-31T04:25:29;4.67;4.00;2.00
62599;PMS7003;48671;48.922;2.346;2023-07-31T04:27:54;7.67;7.00;4.00
62599;PMS7003;48671;48.922;2.346;2023-07-31T04:30:20;8.00;7.00;4.00
62599;PMS7003;48671;48.922;2.346;2023-07-31T04:32:45;7.00;5.00;3.33
62599;PMS7003;48671;48.922;2.346;2023-07-31T04:35:10;7.75;6.50;4.50
62599;PMS7003;48671;48.922;2.346;2023-07-31T04:37:36;6.33;5.00;3.00
62599;PMS7003;48671;48.922;2.346;2023-07-31T04:40:01;8.00;6.00;3.00
62599;PMS7003;48671;48.922;2.346;2023-07-31T04:42:26;6.00;4.75;3.00
62599;PMS7003;48671;48.922;2.346;2023-07-31T04:44:51;8.00;5.25;3.00
62599;PMS7003;48671;48.922;2.346;2023-07-31T04:47:18;3.75;3.75;3.00
62599;PMS7003;48671;48.922;2.346;2023-07-31T04:49:43;6.25;4.25;2.50
62599;PMS7003;48671;48.922;2.346;2023-07-31T04:52:08;5.50;5.00;2.00
62599;PMS7003;48671;48.922;2.346;2023-07-31T04:54:34;5.00;4.33;3.00
62599;PMS7003;48671;48.922;2.346;2023-07-31T04:56:59;8.75;5.50;4.00
62599;PMS7003;48671;48.922;2.346;2023-07-31T04:59:24;5.00;3.33;2.33
62599;PMS7003;48671;48.922;2.346;2023-07-31T05:01:50;7.00;5.50;3.25
62599;PMS7003;48671;48.922;2.346;2023-07-31T05:04:15;5.25;5.25;3.00
62599;PMS7003;48671;48.922;2.346;2023-07-31T05:06:40;6.00;6.00;2.00
62599;PMS7003;48671;48.922;2.346;2023-07-31T05:09:07;5.00;5.00;3.00
62599;PMS7003;48671;48.922;2.346;2023-07-31T05:11:34;7.25;5.75;3.25
62599;PMS7003;48671;48.922;2.346;2023-07-31T05:13:59;6.00;4.00;3.00
62599;PMS7003;48671;48.922;2.346;2023-07-31T05:16:25;5.00;4.33;2.67
62599;PMS7003;48671;48.922;2.346;2023-07-31T05:18:50;6.33;4.33;3.00
62599;PMS7003;48671;48.922;2.346;2023-07-31T05:21:15;7.67;6.00;3.00
62599;PMS7003;48671;48.922;2.346;2023-07-31T05:23:40;4.75;4.75;3.00
62599;PMS7003;48671;48.922;2.346;2023-07-31T05:26:06;3.67;3.67;2.33
62599;PMS7003;48671;48.922;2.346;2023-07-31T05:28:33;9.00;6.00;3.00
62599;PMS7003;48671;48.922;2.346;2023-07-31T05:31:02;10.25;7.00;4.00
62599;PMS7003;48671;48.922;2.346;2023-07-31T05:33:29;8.00;8.00;5.25
62599;PMS7003;48671;48.922;2.346;2023-07-31T05:35:54;8.50;8.50;5.00
62599;PMS7003;48671;48.922;2.346;2023-07-31T05:38:20;7.00;6.00;4.25
62599;PMS7003;48671;48.922;2.346;2023-07-31T05:40:46;9.50;6.50;4.00
62599;PMS7003;48671;48.922;2.346;2023-07-31T05:43:12;6.25;6.00;4.00
62599;PMS7003;48671;48.922;2.346;2023-07-31T05:45:37;6.67;6.00;3.00
62599;PMS7003;48671;48.922;2.346;2023-07-31T05:48:03;6.25;5.00;3.25
62599;PMS7003;48671;48.922;2.346;2023-07-31T05:50:29;8.75;8.00;4.00
62599;PMS7003;48671;48.922;2.346;2023-07-31T05:52:55;7.75;6.75;3.50
62599;PMS7003;48671;48.922;2.346;2023-07-31T05:55:20;8.33;6.00;4.00
62599;PMS7003;48671;48.922;2.346;2023-07-31T05:57:46;6.00;5.75;3.75
62599;PMS7003;48671;48.922;2.346;2023-07-31T06:00:12;10.00;8.00;4.00
62599;PMS7003;48671;48.922;2.346;2023-07-31T06:02:38;7.75;5.00;4.00
62599;PMS7003;48671;48.922;2.346;2023-07-31T06:05:03;6.25;5.50;3.00
62599;PMS7003;48671;48.922;2.346;2023-07-31T06:07:30;9.75;7.75;4.00
62599;PMS7003;48671;48.922;2.346;2023-07-31T06:09:56;8.75;6.75;4.00
62599;PMS7003;48671;48.922;2.346;2023-07-31T06:12:26;6.00;6.00;4.75
62599;PMS7003;48671;48.922;2.346;2023-07-31T06:14:52;10.67;8.00;4.00
62599;PMS7003;48671;48.922;2.346;2023-07-31T06:17:17;9.00;7.00;3.67
62599;PMS7003;48671;48.922;2.346;2023-07-31T06:19:43;7.75;7.50;3.00
62599;PMS7003;48671;48.922;2.346;2023-07-31T06:22:08;11.25;7.00;4.75
62599;PMS7003;48671;48.922;2.346;2023-07-31T06:24:34;8.00;8.00;5.00
62599;PMS7003;48671;48.922;2.346;2023-07-31T06:26:59;9.75;7.00;4.00
62599;PMS7003;48671;48.922;2.346;2023-07-31T06:29:24;6.50;6.50;4.25
62599;PMS7003;48671;48.922;2.346;2023-07-31T06:31:49;12.75;6.00;4.00
62599;PMS7003;48671;48.922;2.346;2023-07-31T06:34:15;6.00;5.00;1.25
62599;PMS7003;48671;48.922;2.346;2023-07-31T06:36:40;6.00;4.50;3.00
62599;PMS7003;48671;48.922;2.346;2023-07-31T06:39:05;7.33;7.33;3.00
62599;PMS7003;48671;48.922;2.346;2023-07-31T06:41:31;8.75;8.50;4.00
62599;PMS7003;48671;48.922;2.346;2023-07-31T06:43:56;10.50;7.25;4.00
62599;PMS7003;48671;48.922;2.346;2023-07-31T06:46:21;10.00;9.00;4.00
62599;PMS7003;48671;48.922;2.346;2023-07-31T06:48:47;7.75;5.25;3.75
62599;PMS7003;48671;48.922;2.346;2023-07-31T06:51:12;7.50;7.00;3.25
62599;PMS7003;48671;48.922;2.346;2023-07-31T06:53:37;10.25;9.00;5.00
62599;PMS7003;48671;48.922;2.346;2023-07-31T06:56:04;12.00;9.00;4.00
62599;PMS7003;48671;48.922;2.346;2023-07-31T06:58:30;8.50;8.50;5.00
62599;PMS7003;48671;48.922;2.346;2023-07-31T07:00:55;9.67;5.00;3.33
62599;PMS7003;48671;48.922;2.346;2023-07-31T07:03:20;8.00;7.00;3.75
62599;PMS7003;48671;48.922;2.346;2023-07-31T07:05:46;10.33;6.00;3.00
62599;PMS7003;48671;48.922;2.346;2023-07-31T07:08:11;9.00;7.75;4.75
62599;PMS7003;48671;48.922;2.346;2023-07-31T07:10:36;15.33;9.00;5.67
62599;PMS7003;48671;48.922;2.346;2023-07-31T07:13:02;10.75;7.00;4.25
62599;PMS7003;48671;48.922;2.346;2023-07-31T07:15:27;8.33;7.00;4.00
62599;PMS7003;48671;48.922;2.346;2023-07-31T07:17:53;9.50;8.25;4.50
62599;PMS7003;48671;48.922;2.346;2023-07-31T07:20:19;6.00;5.75;2.75
62599;PMS7003;48671;48.922;2.346;2023-07-31T07:22:45;7.00;7.00;3.75
62599;PMS7003;48671;48.922;2.346;2023-07-31T07:25:10;11.00;7.00;4.75
62599;PMS7003;48671;48.922;2.346;2023-07-31T07:27:35;10.00;9.00;5.00
62599;PMS7003;48671;48.922;2.346;2023-07-31T07:30:01;6.50;6.00;4.00
62599;PMS7003;48671;48.922;2.346;2023-07-31T07:32:26;9.75;7.00;4.00
62599;PMS7003;48671;48.922;2.346;2023-07-31T07:34:51;7.00;7.00;4.75
62599;PMS7003;48671;48.922;2.346;2023-07-31T07:37:17;13.00;8.50;5.00
62599;PMS7003;48671;48.922;2.346;2023-07-31T07:39:42;9.25;7.00;4.25
62599;PMS7003;48671;48.922;2.346;2023-07-31T07:42:08;6.00;6.00;4.00
62599;PMS7003;48671;48.922;2.346;2023-07-31T07:44:34;11.00;5.25;2.75
62599;PMS7003;48671;48.922;2.346;2023-07-31T07:46:59;9.50;8.00;4.00
62599;PMS7003;48671;48.922;2.346;2023-07-31T07:49:24;9.00;7.50;5.50
62599;PMS7003;48671;48.922;2.346;2023-07-31T07:51:50;10.00;9.00;6.00
62599;PMS7003;48671;48.922;2.346;2023-07-31T07:54:15;10.00;7.25;4.00
62599;PMS7003;48671;48.922;2.346;2023-07-31T07:56:46;9.25;8.00;4.00
62599;PMS7003;48671;48.922;2.346;2023-07-31T07:59:11;8.50;6.75;4.00
62599;PMS7003;48671;48.922;2.346;2023-07-31T08:01:36;7.00;6.67;5.00
62599;PMS7003;48671;48.922;2.346;2023-07-31T08:04:02;8.67;8.33;5.00
62599;PMS7003;48671;48.922;2.346;2023-07-31T08:06:27;12.75;11.50;9.00
62599;PMS7003;48671;48.922;2.346;2023-07-31T08:08:52;8.75;8.75;5.25
62599;PMS7003;48671;48.922;2.346;2023-07-31T08:11:18;10.25;8.75;4.50
62599;PMS7003;48671;48.922;2.346;2023-07-31T08:13:43;9.00;8.25;4.50
62599;PMS7003;48671;48.922;2.346;2023-07-31T08:16:08;14.00;11.25;6.75
62599;PMS7003;48671;48.922;2.346;2023-07-31T08:18:34;9.00;7.00;5.00
62599;PMS7003;48671;48.922;2.346;2023-07-31T08:21:01;13.00;10.25;5.00
62599;PMS7003;48671;48.922;2.346;2023-07-31T08:23:27;10.00;8.75;5.75
62599;PMS7003;48671;48.922;2.346;2023-07-31T08:25:52;8.75;6.50;3.75
62599;PMS7003;48671;48.922;2.346;2023-07-31T08:28:17;9.00;7.00;3.50
62599;PMS7003;48671;48.922;2.346;2023-07-31T08:30:43;6.67;6.67;3.33
62599;PMS7003;48671;48.922;2.346;2023-07-31T08:33:08;10.50;9.00;6.00
62599;PMS7003;48671;48.922;2.346;2023-07-31T08:35:33;6.50;6.50;5.00
62599;PMS7003;48671;48.922;2.346;2023-07-31T08:37:59;8.50;8.50;5.00
62599;PMS7003;48671;48.922;2.346;2023-07-31T08:40:24;6.50;6.50;4.50
62599;PMS7003;48671;48.922;2.346;2023-07-31T08:42:53;8.25;6.50;4.25
62599;PMS7003;48671;48.922;2.346;2023-07-31T08:45:21;9.75;7.25;4.00
62599;PMS7003;48671;48.922;2.346;2023-07-31T08:47:48;7.00;7.00;4.00
62599;PMS7003;48671;48.922;2.346;2023-07-31T08:50:15;10.00;7.75;5.00
62599;PMS7003;48671;48.922;2.346;2023-07-31T08:52:42;7.00;5.00;2.00
62599;PMS7003;48671;48.922;2.346;2023-07-31T08:55:07;14.50;5.50;3.00
62599;PMS7003;48671;48.922;2.346;2023-07-31T08:57:36;8.00;6.00;3.00
62599;PMS7003;48671;48.922;2.346;2023-07-31T09:00:06;13.75;9.75;5.50
62599;PMS7003;48671;48.922;2.346;2023-07-31T09:02:46;8.50;7.00;5.00
62599;PMS7003;48671;48.922;2.346;2023-07-31T09:05:17;7.00;6.75;3.00
62599;PMS7003;48671;48.922;2.346;2023-07-31T09:07:44;6.75;6.75;4.50
62599;PMS7003;48671;48.922;2.346;2023-07-31T09:10:12;8.50;6.75;3.25
62599;PMS7003;48671;48.922;2.346;2023-07-31T09:12:37;8.50;5.50;4.00
62599;PMS7003;48671;48.922;2.346;2023-07-31T09:15:04;10.50;9.75;4.50
62599;PMS7003;48671;48.922;2.346;2023-07-31T09:17:30;12.50;8.00;5.00
62599;PMS7003;48671;48.922;2.346;2023-07-31T09:19:56;10.50;7.25;4.75
62599;PMS7003;48671;48.922;2.346;2023-07-31T09:22:34;15.25;9.00;6.25
62599;PMS7003;48671;48.922;2.346;2023-07-31T09:25:16;8.75;8.75;6.00
62599;PMS7003;48671;48.922;2.346;2023-07-31T09:28:02;7.00;7.00;5.75
62599;PMS7003;48671;48.922;2.346;2023-07-31T09:30:29;10.50;9.00;6.00
62599;PMS7003;48671;48.922;2.346;2023-07-31T09:33:01;10.50;8.00;6.00
62599;PMS7003;48671;48.922;2.346;2023-07-31T09:35:31;10.00;9.00;5.00
62599;PMS7003;48671;48.922;2.346;2023-07-31T09:37:59;8.00;7.00;5.00
62599;PMS7003;48671;48.922;2.346;2023-07-31T09:40:29;8.75;6.25;4.25
62599;PMS7003;48671;48.922;2.346;2023-07-31T09:43:00;8.25;8.25;6.00
62599;PMS7003;48671;48.922;2.346;2023-07-31T09:45:27;12.00;10.00;7.00
62599;PMS7003;48671;48.922;2.346;2023-07-31T09:47:54;12.75;9.50;6.75
62599;PMS7003;48671;48.922;2.346;2023-07-31T09:50:20;10.25;9.25;6.00
62599;PMS7003;48671;48.922;2.346;2023-07-31T09:52:47;9.25;9.25;5.00
62599;PMS7003;48671;48.922;2.346;2023-07-31T09:55:12;10.25;10.25;7.00
62599;PMS7003;48671;48.922;2.346;2023-07-31T09:57:39;8.00;8.00;6.00
62599;PMS7003;48671;48.922;2.346;2023-07-31T10:00:09;11.00;10.00;6.00
62599;PMS7003;48671;48.922;2.346;2023-07-31T10:02:36;9.50;9.50;5.75
62599;PMS7003;48671;48.922;2.346;2023-07-31T10:05:03;10.25;9.25;6.75
62599;PMS7003;48671;48.922;2.346;2023-07-31T10:07:30;11.75;10.00;7.00
62599;PMS7003;48671;48.922;2.346;2023-07-31T10:10:00;11.00;8.75;6.00
62599;PMS7003;48671;48.922;2.346;2023-07-31T10:12:26;10.00;7.50;5.50
62599;PMS7003;48671;48.922;2.346;2023-07-31T10:14:55;11.50;11.00;6.00
62599;PMS7003;48671;48.922;2.346;2023-07-31T10:17:21;9.25;8.75;5.25
62599;PMS7003;48671;48.922;2.346;2023-07-31T10:19:48;10.00;7.00;5.00
62599;PMS7003;48671;48.922;2.346;2023-07-31T10:22:15;8.75;7.00;4.00
62599;PMS7003;48671;48.922;2.346;2023-07-31T10:24:44;8.50;6.25;4.00
62599;PMS7003;48671;48.922;2.346;2023-07-31T10:27:10;5.00;4.00;3.75
62599;PMS7003;48671;48.922;2.346;2023-07-31T10:29:36;8.50;6.75;4.00
62599;PMS7003;48671;48.922;2.346;2023-07-31T10:32:04;8.25;8.25;5.00
62599;PMS7003;48671;48.922;2.346;2023-07-31T10:34:33;11.25;10.00;4.00
62599;PMS7003;48671;48.922;2.346;2023-07-31T10:40:09;7.00;7.00;3.75
62599;PMS7003;48671;48.922;2.346;2023-07-31T10:42:38;9.75;9.50;6.50
62599;PMS7003;48671;48.922;2.346;2023-07-31T10:45:14;7.25;7.00;4.25
62599;PMS7003;48671;48.922;2.346;2023-07-31T10:47:48;10.00;8.75;5.00
62599;PMS7003;48671;48.922;2.346;2023-07-31T10:50:17;7.75;7.50;4.00
62599;PMS7003;48671;48.922;2.346;2023-07-31T10:52:51;12.00;8.00;4.00
62599;PMS7003;48671;48.922;2.346;2023-07-31T10:55:31;6.25;6.25;3.75
62599;PMS7003;48671;48.922;2.346;2023-07-31T10:58:11;11.75;9.00;5.75
62599;PMS7003;48671;48.922;2.346;2023-07-31T11:00:37;11.00;8.50;5.25
62599;PMS7003;48671;48.922;2.346;2023-07-31T11:03:05;11.00;9.75;5.25
62599;PMS7003;48671;48.922;2.346;2023-07-31T11:08:14;11.50;7.75;5.50
62599;PMS7003;48671;48.922;2.346;2023-07-31T11:13:30;12.00;11.00;4.75
62599;PMS7003;48671;48.922;2.346;2023-07-31T11:15:57;11.00;9.00;5.00
62599;PMS7003;48671;48.922;2.346;2023-07-31T11:18:23;11.50;8.00;5.00
62599;PMS7003;48671;48.922;2.346;2023-07-31T11:20:50;13.25;8.75;5.75
62599;PMS7003;48671;48.922;2.346;2023-07-31T11:23:16;6.50;6.00;3.00
62599;PMS7003;48671;48.922;2.346;2023-07-31T11:25:42;6.00;6.00;4.00
62599;PMS7003;48671;48.922;2.346;2023-07-31T11:28:11;11.75;7.50;4.00
62599;PMS7003;48671;48.922;2.346;2023-07-31T11:30:38;15.75;10.00;4.25
62599;PMS7003;48671;48.922;2.346;2023-07-31T11:33:05;7.50;6.75;3.00
62599;PMS7003;48671;48.922;2.346;2023-07-31T11:35:32;11.75;10.25;5.00
62599;PMS7003;48671;48.922;2.346;2023-07-31T11:37:58;6.75;6.25;3.50
62599;PMS7003;48671;48.922;2.346;2023-07-31T11:40:24;9.75;9.75;6.00
62599;PMS7003;48671;48.922;2.346;2023-07-31T11:42:56;12.50;9.00;4.50
62599;PMS7003;48671;48.922;2.346;2023-07-31T11:45:24;16.75;11.00;5.75
62599;PMS7003;48671;48.922;2.346;2023-07-31T11:47:52;22.50;11.75;6.25
62599;PMS7003;48671;48.922;2.346;2023-07-31T11:50:19;14.00;7.00;5.00
62599;PMS7003;48671;48.922;2.346;2023-07-31T11:52:44;10.00;10.00;5.00
62599;PMS7003;48671;48.922;2.346;2023-07-31T11:55:12;11.75;10.25;5.50
62599;PMS7003;48671;48.922;2.346;2023-07-31T11:57:38;9.00;8.00;4.75
62599;PMS7003;48671;48.922;2.346;2023-07-31T12:00:06;12.25;10.25;6.75
62599;PMS7003;48671;48.922;2.346;2023-07-31T12:02:35;10.00;10.00;5.00
62599;PMS7003;48671;48.922;2.346;2023-07-31T12:05:02;11.75;8.00;5.00
62599;PMS7003;48671;48.922;2.346;2023-07-31T12:07:27;8.00;8.00;5.00
62599;PMS7003;48671;48.922;2.346;2023-07-31T12:10:07;9.00;9.00;5.00
62599;PMS7003;48671;48.922;2.346;2023-07-31T12:12:33;19.75;11.25;6.00
62599;PMS7003;48671;48.922;2.346;2023-07-31T12:14:58;15.67;12.00;5.67
62599;PMS7003;48671;48.922;2.346;2023-07-31T12:17:23;11.50;9.00;5.25
62599;PMS7003;48671;48.922;2.346;2023-07-31T12:19:50;10.25;7.25;4.00
62599;PMS7003;48671;48.922;2.346;2023-07-31T12:22:16;9.75;8.25;4.75
62599;PMS7003;48671;48.922;2.346;2023-07-31T12:24:42;8.00;7.00;4.75
62599;PMS7003;48671;48.922;2.346;2023-07-31T12:27:12;11.25;9.00;5.25
62599;PMS7003;48671;48.922;2.346;2023-07-31T12:29:39;9.25;8.00;5.25
62599;PMS7003;48671;48.922;2.346;2023-07-31T12:32:19;10.25;9.25;5.50
62599;PMS7003;48671;48.922;2.346;2023-07-31T12:34:46;7.75;7.75;4.75
62599;PMS7003;48671;48.922;2.346;2023-07-31T12:37:11;7.50;7.50;5.00
62599;PMS7003;48671;48.922;2.346;2023-07-31T12:39:37;10.50;9.50;4.25
62599;PMS7003;48671;48.922;2.346;2023-07-31T12:42:02;13.00;10.00;5.00
62599;PMS7003;48671;48.922;2.346;2023-07-31T12:44:28;14.50;9.50;6.00
62599;PMS7003;48671;48.922;2.346;2023-07-31T12:46:53;9.33;9.33;5.00
62599;PMS7003;48671;48.922;2.346;2023-07-31T12:49:18;20.67;12.67;8.67
62599;PMS7003;48671;48.922;2.346;2023-07-31T12:51:43;11.00;10.00;5.67
62599;PMS7003;48671;48.922;2.346;2023-07-31T12:54:09;10.25;9.75;5.00
62599;PMS7003;48671;48.922;2.346;2023-07-31T12:56:34;12.50;8.00;5.75
62599;PMS7003;48671;48.922;2.346;2023-07-31T12:58:59;15.00;9.75;6.00
62599;PMS7003;48671;48.922;2.346;2023-07-31T13:01:25;8.50;7.00;5.00
62599;PMS7003;48671;48.922;2.346;2023-07-31T13:03:50;12.00;11.67;6.00
62599;PMS7003;48671;48.922;2.346;2023-07-31T13:06:15;12.00;12.00;7.00
62599;PMS7003;48671;48.922;2.346;2023-07-31T13:08:41;12.25;10.50;6.00
62599;PMS7003;48671;48.922;2.346;2023-07-31T13:11:06;8.00;8.00;4.50
62599;PMS7003;48671;48.922;2.346;2023-07-31T13:13:31;9.00;8.75;5.25
62599;PMS7003;48671;48.922;2.346;2023-07-31T13:15:56;14.75;10.75;8.00
62599;PMS7003;48671;48.922;2.346;2023-07-31T13:18:22;11.75;8.00;5.50
62599;PMS7003;48671;48.922;2.346;2023-07-31T13:20:47;11.50;9.00;6.00
62599;PMS7003;48671;48.922;2.346;2023-07-31T13:23:12;11.50;9.50;5.25
62599;PMS7003;48671;48.922;2.346;2023-07-31T13:25:38;11.67;11.00;7.00
62599;PMS7003;48671;48.922;2.346;2023-07-31T13:28:03;12.00;11.25;5.75
62599;PMS7003;48671;48.922;2.346;2023-07-31T13:30:28;10.25;9.00;6.00
62599;PMS7003;48671;48.922;2.346;2023-07-31T13:32:54;12.00;10.75;6.75
62599;PMS7003;48671;48.922;2.346;2023-07-31T13:35:19;12.00;11.33;8.00
62599;PMS7003;48671;48.922;2.346;2023-07-31T13:37:44;8.75;8.25;6.00
62599;PMS7003;48671;48.922;2.346;2023-07-31T13:40:10;13.33;11.67;7.67
62599;PMS7003;48671;48.922;2.346;2023-07-31T13:42:36;9.75;8.00;5.25
62599;PMS7003;48671;48.922;2.346;2023-07-31T13:45:01;9.50;7.50;4.75
62599;PMS7003;48671;48.922;2.346;2023-07-31T13:47:26;9.25;8.75;6.25
62599;PMS7003;48671;48.922;2.346;2023-07-31T13:49:51;9.00;7.50;4.50
62599;PMS7003;48671;48.922;2.346;2023-07-31T13:52:17;7.00;7.00;4.50
62599;PMS7003;48671;48.922;2.346;2023-07-31T13:54:43;7.33;6.00;4.00
62599;PMS7003;48671;48.922;2.346;2023-07-31T13:57:08;15.00;9.00;5.00
62599;PMS7003;48671;48.922;2.346;2023-07-31T13:59:33;7.25;7.00;4.00
62599;PMS7003;48671;48.922;2.346;2023-07-31T14:01:59;14.00;10.00;4.00
62599;PMS7003;48671;48.922;2.346;2023-07-31T14:04:24;6.50;6.50;3.00
62599;PMS7003;48671;48.922;2.346;2023-07-31T14:06:49;6.75;5.75;3.25
62599;PMS7003;48671;48.922;2.346;2023-07-31T14:09:15;9.50;8.00;3.75
62599;PMS7003;48671;48.922;2.346;2023-07-31T14:11:40;8.75;6.75;3.75
62599;PMS7003;48671;48.922;2.346;2023-07-31T14:14:06;10.50;7.50;4.75
62599;PMS7003;48671;48.922;2.346;2023-07-31T14:16:31;8.25;6.75;3.75
62599;PMS7003;48671;48.922;2.346;2023-07-31T14:18:56;11.50;7.75;4.25
62599;PMS7003;48671;48.922;2.346;2023-07-31T14:21:24;6.00;6.00;2.50
62599;PMS7003;48671;48.922;2.346;2023-07-31T14:23:50;8.00;6.00;3.00
62599;PMS7003;48671;48.922;2.346;2023-07-31T14:26:15;5.67;5.67;3.00